Time;durP1;ratioP1;P1;durP2;ratioP2;P2;SDS_P1;SDS_P2;PMS_P1;PMS_P2;Temp;Humidity;BMP_temperature;BMP_pressure;BME280_temperature;BME280_humidity;BME280_pressure;Samples;Min_cycle;Max_cycle;Signal;HPM_P1;HPM_P2
2022/06/17 00:01:24;;;;;;;1.80;1.70;;;16.40;99.90;;;;;;4995297;28;20081;-48
2022/06/17 00:03:51;;;;;;;2.20;1.67;;;16.30;99.90;;;;;;4994597;28;20096;-48
2022/06/17 00:06:22;;;;;;;2.03;1.83;;;16.10;99.90;;;;;;4994790;28;20473;-51
2022/06/17 00:08:50;;;;;;;2.22;1.80;;;16.10;99.90;;;;;;4993966;28;20022;-47
2022/06/17 00:11:28;;;;;;;3.58;2.00;;;16.10;99.90;;;;;;4993279;28;20030;-51
2022/06/17 00:13:54;;;;;;;4.45;1.80;;;16.00;99.90;;;;;;4995009;28;20124;-49
2022/06/17 00:16:23;;;;;;;3.25;2.13;;;16.00;99.90;;;;;;4993617;28;20113;-47
2022/06/17 00:18:49;;;;;;;2.00;1.70;;;15.90;99.90;;;;;;4995087;28;20485;-52
2022/06/17 00:21:27;;;;;;;4.38;1.88;;;15.70;99.90;;;;;;4994249;28;20030;-50
2022/06/17 00:23:53;;;;;;;4.32;2.25;;;15.70;99.90;;;;;;4993093;28;20481;-50
2022/06/17 00:26:19;;;;;;;2.38;1.88;;;15.70;99.90;;;;;;4993041;28;20073;-48
2022/06/17 00:28:45;;;;;;;4.10;1.90;;;15.60;99.90;;;;;;4994296;28;20033;-48
2022/06/17 00:31:11;;;;;;;2.78;2.28;;;15.50;99.90;;;;;;4992970;28;20105;-50
2022/06/17 00:33:37;;;;;;;3.08;2.33;;;15.40;99.90;;;;;;4993206;28;20031;-52
2022/06/17 00:36:03;;;;;;;3.50;2.30;;;15.20;99.90;;;;;;4993206;28;20058;-48
2022/06/17 00:38:32;;;;;;;2.38;2.17;;;15.10;99.90;;;;;;4992761;28;20077;-47
2022/06/17 00:41:06;;;;;;;5.85;2.40;;;14.90;99.90;;;;;;4994080;28;20509;-49
2022/06/17 00:43:36;;;;;;;5.57;2.40;;;14.80;99.90;;;;;;4991873;28;20138;-50
2022/06/17 00:46:09;;;;;;;4.88;2.05;;;14.70;99.90;;;;;;4992846;28;20571;-47
2022/06/17 00:48:46;;;;;;;3.63;2.22;;;14.70;99.90;;;;;;4993953;28;20026;-48
2022/06/17 00:51:21;;;;;;;5.00;1.83;;;14.70;99.90;;;;;;4994295;28;20054;-49
2022/06/17 00:53:56;;;;;;;5.32;2.00;;;14.80;99.90;;;;;;4993854;28;20033;-48
2022/06/17 00:56:30;;;;;;;5.60;3.03;;;14.90;99.90;;;;;;4992980;28;20034;-47
2022/06/17 00:59:09;;;;;;;2.85;2.45;;;15.00;99.90;;;;;;4993133;28;20022;-51
2022/06/17 01:01:46;;;;;;;4.32;2.17;;;14.90;99.90;;;;;;4993315;28;20033;-53
2022/06/17 01:04:17;;;;;;;5.93;3.13;;;14.90;99.90;;;;;;4994293;28;20038;-50
2022/06/17 01:06:48;;;;;;;2.33;2.08;;;14.90;99.90;;;;;;4992580;28;20034;-51
2022/06/17 01:12:05;;;;;;;2.17;1.98;;;14.80;99.90;;;;;;4994098;28;20351;-49
2022/06/17 01:14:31;;;;;;;2.80;2.47;;;14.70;99.90;;;;;;4992586;28;20090;-51
2022/06/17 01:16:58;;;;;;;3.55;2.40;;;14.70;99.90;;;;;;4992332;28;20030;-46
2022/06/17 01:19:30;;;;;;;3.80;2.25;;;14.70;99.90;;;;;;4993919;28;20049;-47
2022/06/17 01:22:27;;;;;;;2.65;2.40;;;14.70;99.90;;;;;;4993523;28;20034;-47
2022/06/17 01:25:02;;;;;;;3.42;2.30;;;14.60;99.90;;;;;;4992155;28;20026;-47
2022/06/17 01:27:33;;;;;;;2.20;2.00;;;14.60;99.90;;;;;;4992308;28;20022;-48
2022/06/17 01:29:59;;;;;;;2.78;2.35;;;14.50;99.90;;;;;;4993476;28;20018;-48
2022/06/17 01:32:29;;;;;;;3.65;2.70;;;14.40;99.90;;;;;;4993690;28;20034;-50
2022/06/17 01:34:55;;;;;;;3.83;2.05;;;14.40;99.90;;;;;;4991987;28;20041;-46
2022/06/17 01:37:21;;;;;;;3.25;2.38;;;14.40;99.90;;;;;;4992798;28;20026;-47
2022/06/17 01:39:47;;;;;;;4.55;2.45;;;14.40;99.90;;;;;;4993720;28;20031;-47
2022/06/17 01:42:13;;;;;;;1.88;1.65;;;14.40;99.90;;;;;;4993262;28;20080;-50
2022/06/17 01:44:41;;;;;;;3.00;2.10;;;14.50;99.90;;;;;;4993170;28;20029;-47
2022/06/17 01:47:11;;;;;;;5.03;3.13;;;14.50;99.90;;;;;;4991983;28;20026;-47
2022/06/17 01:49:50;;;;;;;3.55;2.47;;;14.40;99.90;;;;;;4992378;28;20469;-50
2022/06/17 01:52:33;;;;;;;3.78;2.58;;;14.30;99.90;;;;;;4993342;28;20109;-47
2022/06/17 01:55:09;;;;;;;4.40;2.35;;;14.10;99.90;;;;;;4994609;28;20030;-46
2022/06/17 01:57:48;;;;;;;7.20;2.83;;;14.10;99.90;;;;;;4997055;28;20084;-48
2022/06/17 02:00:18;;;;;;;2.25;2.05;;;14.10;99.90;;;;;;4997396;28;20022;-49
2022/06/17 02:02:48;;;;;;;4.63;2.50;;;14.10;99.90;;;;;;4996423;28;20033;-47
2022/06/17 02:05:14;;;;;;;2.42;2.22;;;14.10;99.90;;;;;;4997314;28;20030;-47
2022/06/17 02:07:52;;;;;;;2.63;2.30;;;14.10;99.90;;;;;;4995760;28;20030;-51
2022/06/17 02:10:18;;;;;;;2.63;2.42;;;14.10;99.90;;;;;;4996819;28;20043;-49
2022/06/17 02:12:44;;;;;;;3.38;2.33;;;13.90;99.90;;;;;;4997080;28;20022;-48
2022/06/17 02:15:11;;;;;;;3.67;2.50;;;13.80;99.90;;;;;;4997131;28;20038;-47
2022/06/17 02:17:41;;;;;;;7.20;2.40;;;13.80;99.90;;;;;;4995873;28;20108;-47
2022/06/17 02:20:09;;;;;;;2.60;2.40;;;13.70;99.90;;;;;;4995852;28;20033;-49
2022/06/17 02:22:35;;;;;;;3.83;2.13;;;13.60;99.90;;;;;;4996580;28;20401;-48
2022/06/17 02:25:09;;;;;;;5.10;2.47;;;13.60;99.90;;;;;;4995231;28;20449;-48
2022/06/17 02:27:35;;;;;;;3.45;2.63;;;13.60;99.90;;;;;;4995561;28;20053;-49
2022/06/17 02:30:04;;;;;;;4.90;2.42;;;13.70;99.90;;;;;;4996767;28;20021;-49
2022/06/17 02:32:31;;;;;;;3.78;2.30;;;13.70;99.90;;;;;;4996348;28;20077;-48
2022/06/17 02:35:01;;;;;;;8.32;2.25;;;13.70;99.90;;;;;;4995386;28;20477;-47
2022/06/17 02:37:29;;;;;;;2.40;2.20;;;13.90;99.90;;;;;;4995263;28;20373;-47
2022/06/17 02:39:59;;;;;;;3.53;2.42;;;13.90;99.90;;;;;;4995465;28;20037;-47
2022/06/17 02:42:26;;;;;;;6.45;2.42;;;13.90;99.90;;;;;;4996188;28;20042;-48
2022/06/17 02:44:57;;;;;;;4.00;2.70;;;13.80;99.90;;;;;;4994932;28;20033;-47
2022/06/17 02:47:24;;;;;;;3.00;2.30;;;13.80;99.90;;;;;;4995342;28;20057;-50
2022/06/17 02:49:51;;;;;;;2.50;2.28;;;13.70;99.90;;;;;;4994978;28;20026;-50
2022/06/17 02:52:20;;;;;;;3.00;2.47;;;13.80;99.90;;;;;;4994889;28;20128;-50
2022/06/17 02:54:59;;;;;;;3.58;2.53;;;13.70;99.90;;;;;;4994767;28;20033;-49
2022/06/17 02:57:28;;;;;;;5.57;2.15;;;13.80;99.90;;;;;;4995646;28;20026;-47
2022/06/17 03:00:01;;;;;;;4.63;2.58;;;13.80;99.90;;;;;;4996265;28;20018;-48
2022/06/17 03:02:44;;;;;;;4.28;2.30;;;13.80;99.90;;;;;;4996030;28;20026;-51
2022/06/17 03:05:24;;;;;;;3.03;2.05;;;13.70;99.90;;;;;;4996064;28;20088;-49
2022/06/17 03:07:51;;;;;;;2.72;2.45;;;13.70;99.90;;;;;;4993842;28;20054;-46
2022/06/17 03:10:23;;;;;;;5.82;2.20;;;13.70;99.90;;;;;;4995787;28;20959;-48
2022/06/17 03:12:52;;;;;;;;;;;13.70;99.90;;;;;;4996356;28;20080;-46
2022/06/17 03:15:19;;;;;;;3.80;2.35;;;13.60;99.90;;;;;;4994532;28;19906;-47
2022/06/17 03:17:46;;;;;;;3.47;2.55;;;13.50;99.90;;;;;;4996042;28;20041;-47
2022/06/17 03:20:26;;;;;;;4.45;2.60;;;13.50;99.90;;;;;;4995587;28;20023;-53
2022/06/17 03:22:57;;;;;;;3.85;2.58;;;13.50;99.90;;;;;;4995802;28;20033;-49
2022/06/17 03:25:36;;;;;;;3.00;2.08;;;13.70;99.90;;;;;;4995861;28;20026;-49
2022/06/17 03:28:13;;;;;;;3.25;2.35;;;13.90;99.90;;;;;;4994317;28;20166;-50
2022/06/17 03:31:00;;;;;;;6.13;1.98;;;13.80;99.90;;;;;;4994229;28;20026;-47
2022/06/17 03:33:32;;;;;;;2.40;2.17;;;13.90;99.90;;;;;;4994854;28;20049;-50
2022/06/17 03:36:04;;;;;;;2.92;2.25;;;14.00;99.90;;;;;;4995486;28;20031;-46
2022/06/17 03:38:45;;;;;;;3.90;2.72;;;14.20;99.90;;;;;;4995327;28;20027;-49
2022/06/17 03:41:11;;;;;;;8.38;2.45;;;14.20;99.90;;;;;;4994226;28;20033;-51
2022/06/17 03:43:47;;;;;;;4.22;2.33;;;14.10;99.90;;;;;;4995492;28;20027;-46
2022/06/17 03:46:14;;;;;;;2.25;2.05;;;14.00;99.90;;;;;;4994780;28;20038;-51
2022/06/17 03:48:43;;;;;;;3.53;2.10;;;14.10;99.90;;;;;;4995107;28;20067;-53
2022/06/17 03:51:19;;;;;;;3.33;2.30;;;14.10;99.90;;;;;;4993735;28;20029;-47
2022/06/17 03:53:46;;;;;;;2.42;2.22;;;14.10;99.90;;;;;;4995071;28;20030;-50
2022/06/17 03:56:14;;;;;;;3.92;2.42;;;14.10;99.90;;;;;;4994916;28;20026;-47
2022/06/17 03:58:40;;;;;;;3.38;2.25;;;14.10;99.90;;;;;;4994876;28;20026;-50
2022/06/17 04:01:20;;;;;;;4.30;2.53;;;14.30;99.90;;;;;;4993496;28;20022;-48
2022/06/17 04:03:51;;;;;;;3.08;2.10;;;14.50;99.90;;;;;;4995069;28;20109;-51
2022/06/17 04:06:20;;;;;;;3.15;2.40;;;14.70;99.90;;;;;;4994792;28;20086;-49
2022/06/17 04:09:01;;;;;;;3.95;2.33;;;14.90;99.90;;;;;;4993677;28;20033;-50
2022/06/17 04:11:37;;;;;;;4.07;2.30;;;15.10;99.90;;;;;;4993888;28;20054;-48
2022/06/17 04:14:06;;;;;;;4.47;2.55;;;15.40;99.90;;;;;;4994716;28;20035;-51
2022/06/17 04:16:50;;;;;;;4.57;2.38;;;15.60;99.90;;;;;;4994805;28;20018;-51
2022/06/17 04:19:27;;;;;;;2.60;2.30;;;15.80;99.90;;;;;;4994322;28;20085;-50
2022/06/17 04:21:59;;;;;;;4.00;2.30;;;16.00;99.90;;;;;;4994561;28;20022;-51
2022/06/17 04:24:25;;;;;;;;;;;16.20;99.90;;;;;;4993516;28;20053;-47
2022/06/17 04:26:55;;;;;;;3.78;2.42;;;16.60;99.90;;;;;;4994430;28;19913;-48
2022/06/17 04:29:36;;;;;;;3.67;2.30;;;17.00;99.90;;;;;;4993114;28;20027;-46
2022/06/17 04:32:24;;;;;;;4.97;2.50;;;17.50;99.90;;;;;;4994687;28;20018;-50
2022/06/17 04:34:50;;;;;;;3.83;2.33;;;17.90;99.90;;;;;;4995101;28;20022;-47
2022/06/17 04:37:20;;;;;;;3.50;2.00;;;18.30;99.90;;;;;;4994651;28;20113;-49
2022/06/17 04:39:57;;;;;;;7.13;2.15;;;18.60;99.90;;;;;;4994874;28;20081;-47
2022/06/17 04:42:36;;;;;;;5.80;2.28;;;19.10;99.90;;;;;;4994507;28;20081;-49
2022/06/17 04:45:03;;;;;;;2.55;2.13;;;19.30;99.90;;;;;;4994391;28;20105;-49
2022/06/17 04:47:31;;;;;;;7.95;2.78;;;19.30;99.90;;;;;;4994045;28;20022;-49
2022/06/17 04:50:00;;;;;;;6.30;2.10;;;19.20;99.90;;;;;;4994493;28;20018;-47
2022/06/17 04:52:34;;;;;;;5.47;2.28;;;19.30;99.90;;;;;;4994632;28;20027;-48
2022/06/17 04:55:01;;;;;;;13.70;4.32;;;19.30;99.90;;;;;;4993077;28;20393;-50
2022/06/17 04:57:29;;;;;;;12.82;6.13;;;19.40;99.90;;;;;;4993941;28;20030;-47
2022/06/17 04:59:58;;;;;;;14.52;6.15;;;19.50;99.90;;;;;;4994336;28;20038;-49
2022/06/17 05:02:27;;;;;;;10.07;5.20;;;19.70;99.90;;;;;;4994166;28;20121;-49
2022/06/17 05:04:57;;;;;;;10.20;4.78;;;20.00;99.90;;;;;;4994375;28;20030;-48
2022/06/17 05:07:24;;;;;;;10.00;4.95;;;20.50;99.90;;;;;;4994353;28;20022;-51
2022/06/17 05:09:53;;;;;;;8.68;3.55;;;21.00;99.90;;;;;;4993241;28;20105;-47
2022/06/17 05:12:29;;;;;;;5.28;2.60;;;21.40;99.90;;;;;;4992934;28;20030;-47
2022/06/17 05:15:03;;;;;;;4.85;2.95;;;21.80;99.90;;;;;;4994202;28;20034;-50
2022/06/17 05:17:29;;;;;;;5.35;2.97;;;22.30;99.90;;;;;;4994085;28;20027;-51
2022/06/17 05:19:54;;;;;;;5.72;3.10;;;22.70;99.90;;;;;;4992765;28;20041;-48
2022/06/17 05:22:32;;;;;;;4.07;2.78;;;23.00;99.90;;;;;;4992729;28;20027;-48
2022/06/17 05:24:59;;;;;;;8.32;3.15;;;23.30;99.90;;;;;;4992951;28;20085;-48
2022/06/17 05:27:24;;;;;;;5.63;2.95;;;23.60;99.90;;;;;;4992741;28;20039;-51
2022/06/17 05:29:50;;;;;;;7.72;3.70;;;23.90;99.90;;;;;;4995566;28;20060;-52
2022/06/17 05:32:19;;;;;;;6.28;3.35;;;24.30;99.90;;;;;;5000723;28;20121;-50
2022/06/17 05:34:46;;;;;;;8.50;3.63;;;24.60;99.90;;;;;;5000016;28;20026;-51
2022/06/17 05:37:12;;;;;;;6.65;3.40;;;25.10;99.90;;;;;;4999560;28;20065;-52
2022/06/17 05:39:38;;;;;;;4.93;3.17;;;25.30;99.90;;;;;;4999497;28;20023;-51
2022/06/17 05:42:05;;;;;;;5.10;2.30;;;25.60;99.90;;;;;;5000000;28;20121;-51
2022/06/17 05:44:31;;;;;;;5.63;2.38;;;25.70;98.80;;;;;;5000235;28;20022;-50
2022/06/17 05:46:57;;;;;;;4.10;2.47;;;26.00;97.60;;;;;;4999239;28;20109;-52
2022/06/17 05:49:23;;;;;;;3.15;2.30;;;25.80;97.50;;;;;;5000263;28;20033;-48
2022/06/17 05:51:49;;;;;;;3.30;2.05;;;26.00;97.10;;;;;;4999051;28;20018;-51
2022/06/17 05:54:14;;;;;;;2.40;2.20;;;26.30;96.60;;;;;;4999011;28;20034;-51
2022/06/17 05:56:41;;;;;;;5.43;2.80;;;26.50;95.80;;;;;;5000520;28;20050;-50
2022/06/17 05:59:07;;;;;;;3.45;2.08;;;26.90;94.90;;;;;;4999324;28;20030;-52
2022/06/17 06:01:32;;;;;;;3.72;2.00;;;27.10;94.00;;;;;;5000283;28;20405;-52
2022/06/17 06:03:58;;;;;;;4.82;2.25;;;27.50;92.90;;;;;;5000109;28;20106;-50
2022/06/17 06:06:24;;;;;;;2.70;1.90;;;27.80;92.50;;;;;;5000035;28;20462;-51
2022/06/17 06:08:50;;;;;;;3.35;2.25;;;27.80;91.80;;;;;;5000154;28;20034;-53
2022/06/17 06:11:15;;;;;;;2.50;1.90;;;28.20;90.60;;;;;;4998819;28;20080;-54
2022/06/17 06:13:41;;;;;;;4.57;2.40;;;28.40;89.90;;;;;;4999537;28;20027;-53
2022/06/17 06:16:08;;;;;;;2.88;2.42;;;28.90;87.50;;;;;;5000106;28;20049;-55
2022/06/17 06:18:39;;;;;;;8.70;2.67;;;29.30;88.30;;;;;;4999713;28;20033;-53
2022/06/17 06:21:05;;;;;;;7.82;2.20;;;29.50;84.40;;;;;;4998913;28;20026;-48
2022/06/17 06:23:39;;;;;;;3.53;2.40;;;29.60;83.50;;;;;;5000119;28;20037;-53
2022/06/17 06:26:07;;;;;;;3.35;2.00;;;30.30;83.60;;;;;;5000138;28;20162;-51
2022/06/17 06:28:34;;;;;;;3.17;1.90;;;30.70;79.50;;;;;;5000083;28;20014;-51
2022/06/17 06:31:07;;;;;;;8.05;2.30;;;31.00;82.10;;;;;;4998750;28;20133;-51
2022/06/17 06:33:33;;;;;;;2.85;1.60;;;31.20;77.00;;;;;;4998583;28;20104;-54
2022/06/17 06:35:59;;;;;;;6.88;2.17;;;31.60;78.70;;;;;;4999882;28;20070;-52
2022/06/17 06:38:25;;;;;;;3.65;1.80;;;31.80;74.30;;;;;;4999906;28;20057;-50
2022/06/17 06:40:51;;;;;;;3.05;2.00;;;31.80;74.50;;;;;;4998455;28;20027;-54
2022/06/17 06:43:19;;;;;;;4.50;2.15;;;32.00;73.20;;;;;;4996313;28;20034;-56
2022/06/17 06:45:50;;;;;;;2.10;1.83;;;32.20;71.40;;;;;;4995446;28;20022;-48
2022/06/17 06:48:20;;;;;;;5.43;2.40;;;32.50;72.20;;;;;;4995527;28;20028;-54
2022/06/17 06:51:31;;;;;;;5.22;2.30;;;32.80;69.20;;;;;;4996544;28;20041;-49
2022/06/17 06:53:56;;;;;;;4.45;2.33;;;32.20;68.00;;;;;;4995898;28;20031;-52
2022/06/17 06:56:22;;;;;;;3.55;2.20;;;32.10;69.60;;;;;;4995316;28;20117;-50
2022/06/17 06:58:49;;;;;;;4.32;2.05;;;32.40;67.70;;;;;;4995254;28;20018;-49
2022/06/17 07:01:15;;;;;;;3.90;2.00;;;31.80;67.40;;;;;;4996465;28;20022;-51
2022/06/17 07:03:40;;;;;;;4.75;1.85;;;32.20;70.00;;;;;;4995257;28;20069;-48
2022/06/17 07:06:06;;;;;;;2.92;2.10;;;33.50;67.20;;;;;;4996327;28;20035;-51
2022/06/17 07:08:35;;;;;;;2.30;1.60;;;34.30;65.20;;;;;;4996276;28;20029;-50
2022/06/17 07:11:02;;;;;;;6.35;2.28;;;34.50;64.20;;;;;;4995482;28;20068;-48
2022/06/17 07:13:30;;;;;;;8.00;2.40;;;34.50;64.40;;;;;;4996316;28;20030;-48
2022/06/17 07:15:57;;;;;;;2.53;1.65;;;33.70;63.20;;;;;;4996192;28;20022;-48
2022/06/17 07:18:32;;;;;;;2.65;1.85;;;34.00;63.40;;;;;;4996268;28;20085;-48
2022/06/17 07:21:01;;;;;;;3.92;2.00;;;34.00;63.30;;;;;;4996113;28;20030;-49
2022/06/17 07:23:34;;;;;;;2.50;1.88;;;34.90;62.00;;;;;;4994870;28;20465;-50
2022/06/17 07:26:02;;;;;;;3.70;1.95;;;35.60;59.80;;;;;;4996083;28;20097;-48
2022/06/17 07:28:28;;;;;;;4.18;1.73;;;35.90;58.40;;;;;;4994829;28;20053;-49
2022/06/17 07:30:55;;;;;;;3.05;1.90;;;36.40;56.10;;;;;;4994963;28;20050;-51
2022/06/17 07:33:23;;;;;;;6.45;1.92;;;36.50;55.40;;;;;;4994536;28;20121;-50
2022/06/17 07:35:55;;;;;;;5.32;1.90;;;36.50;55.40;;;;;;4994584;28;20030;-50
2022/06/17 07:41:09;;;;;;;3.08;1.98;;;38.30;54.90;;;;;;4996308;28;20073;-50
2022/06/17 07:43:35;;;;;;;5.72;1.98;;;38.30;52.70;;;;;;4994955;28;20080;-51
2022/06/17 07:46:03;;;;;;;3.75;1.92;;;37.00;53.40;;;;;;4995598;28;20022;-49
2022/06/17 07:48:29;;;;;;;2.40;1.40;;;36.30;53.10;;;;;;4994401;28;20022;-51
2022/06/17 07:50:58;;;;;;;4.00;1.77;;;35.40;54.80;;;;;;4994685;28;20018;-50
2022/06/17 07:53:28;;;;;;;3.38;1.60;;;36.20;55.50;;;;;;4994269;28;20026;-48
2022/06/17 07:55:56;;;;;;;4.95;1.80;;;36.30;52.90;;;;;;4995542;28;20536;-53
2022/06/17 07:58:22;;;;;;;3.15;1.92;;;36.40;54.00;;;;;;4995470;28;20026;-48
2022/06/17 08:00:48;;;;;;;3.13;1.55;;;36.50;53.20;;;;;;4994168;28;20400;-48
2022/06/17 08:03:16;;;;;;;4.15;2.00;;;36.50;53.30;;;;;;4994254;28;20556;-51
2022/06/17 08:05:45;;;;;;;3.25;1.90;;;37.70;52.20;;;;;;4995573;28;20022;-49
2022/06/17 08:08:12;;;;;;;2.87;1.87;;;39.00;51.00;;;;;;4995341;28;20026;-51
2022/06/17 08:10:39;;;;;;;5.38;1.70;;;40.20;50.00;;;;;;4993883;28;20084;-50
2022/06/17 08:13:06;;;;;;;2.90;1.80;;;40.30;48.90;;;;;;4995187;28;20077;-50
2022/06/17 08:15:33;;;;;;;4.03;2.20;;;41.00;48.90;;;;;;4995162;28;20497;-51
2022/06/17 08:20:35;;;;;;;2.10;1.77;;;37.90;49.20;;;;;;5461369;22;20111;-52
2022/06/17 08:23:02;;;;;;;4.72;2.00;;;38.00;50.90;;;;;;5017496;28;20029;-56
2022/06/17 08:25:29;;;;;;;3.17;1.67;;;38.90;50.20;;;;;;5016744;28;20120;-56
2022/06/17 08:27:57;;;;;;;5.22;1.70;;;39.40;48.70;;;;;;5016854;28;20163;-53
2022/06/17 08:30:27;;;;;;;3.13;1.60;;;38.30;47.30;;;;;;5034472;28;20033;-49
2022/06/17 08:32:55;;;;;;;4.15;1.90;;;37.50;47.90;;;;;;5034078;28;20037;-49
2022/06/17 08:35:31;;;;;;;8.38;1.70;;;37.20;47.20;;;;;;5016431;28;20048;-53
2022/06/17 08:38:11;;;;;;;2.75;1.42;;;36.00;47.70;;;;;;5016379;28;20028;-51
2022/06/17 08:40:48;;;;;;;2.03;1.33;;;33.90;49.20;;;;;;5034267;28;20018;-53
2022/06/17 08:43:20;;;;;;;3.45;1.20;;;34.00;51.10;;;;;;5033974;28;20022;-54
2022/06/17 08:46:27;;;;;;;4.10;1.30;;;33.80;51.10;;;;;;5034265;28;20026;-51
2022/06/17 08:49:18;;;;;;;1.70;1.00;;;33.60;51.40;;;;;;5016264;28;20131;-50
2022/06/17 08:51:55;;;;;;;4.35;1.23;;;32.60;52.00;;;;;;5016065;28;20468;-49
2022/06/17 08:54:34;;;;;;;4.40;1.20;;;33.40;52.00;;;;;;5034186;28;20479;-51
2022/06/17 08:57:20;;;;;;;3.50;1.77;;;33.50;50.20;;;;;;5016093;28;20033;-50
2022/06/17 09:00:16;;;;;;;3.22;1.50;;;34.20;51.60;;;;;;5015948;28;20147;-51
2022/06/17 09:03:05;;;;;;;4.38;1.60;;;34.90;50.80;;;;;;5016793;28;20021;-49
2022/06/17 09:05:43;;;;;;;4.28;1.67;;;33.60;51.70;;;;;;5016010;28;20029;-50
2022/06/17 09:08:47;;;;;;;2.55;1.77;;;33.00;51.20;;;;;;5015887;28;20112;-50
2022/06/17 09:11:21;;;;;;;5.15;1.42;;;33.10;52.30;;;;;;5016193;28;20056;-51
2022/06/17 09:14:01;;;;;;;4.75;1.65;;;34.00;51.40;;;;;;5033400;28;20026;-50
2022/06/17 09:16:57;;;;;;;1.58;1.40;;;34.80;51.00;;;;;;5016168;28;20075;-51
2022/06/17 09:19:29;;;;;;;3.83;1.63;;;35.20;50.60;;;;;;5015766;28;20022;-50
2022/06/17 09:22:01;;;;;;;4.82;1.70;;;36.10;49.90;;;;;;5015813;28;20476;-49
2022/06/17 09:24:30;;;;;;;3.60;1.50;;;36.30;49.80;;;;;;5015651;28;20030;-49
2022/06/17 09:27:05;;;;;;;3.55;1.50;;;36.90;50.00;;;;;;5015975;28;20053;-49
2022/06/17 09:30:09;;;;;;;2.72;1.70;;;38.30;49.20;;;;;;5033579;28;20052;-48
2022/06/17 09:32:42;;;;;;;2.00;1.38;;;37.70;49.00;;;;;;5015607;28;20029;-49
2022/06/17 09:35:42;;;;;;;3.67;1.77;;;39.30;47.90;;;;;;5033351;28;20033;-50
2022/06/17 09:38:17;;;;;;;3.60;1.58;;;39.90;47.30;;;;;;5005014;28;20407;-50
2022/06/17 09:41:04;;;;;;;2.75;1.60;;;39.70;45.50;;;;;;5015564;28;20033;-52
2022/06/17 09:43:39;;;;;;;2.20;1.70;;;39.40;46.40;;;;;;5015713;28;20480;-51
2022/06/17 09:46:36;;;;;;;3.60;1.50;;;37.70;46.30;;;;;;5015570;28;20112;-52
2022/06/17 09:49:25;;;;;;;2.45;1.60;;;37.70;47.80;;;;;;5015541;28;20022;-54
2022/06/17 09:52:03;;;;;;;1.63;1.40;;;36.80;47.70;;;;;;5033548;28;20085;-50
2022/06/17 09:54:34;;;;;;;6.45;1.23;;;35.20;48.20;;;;;;5016032;28;20030;-54
2022/06/17 09:57:21;;;;;;;1.60;1.10;;;35.30;50.10;;;;;;5033121;28;20025;-55
2022/06/17 10:00:03;;;;;;;4.30;1.88;;;36.20;48.60;;;;;;5015507;28;20048;-52
2022/06/17 10:02:49;;;;;;;5.10;1.33;;;35.20;49.00;;;;;;5016525;28;20083;-53
2022/06/17 10:05:37;;;;;;;1.98;1.25;;;35.80;50.90;;;;;;5033251;28;20022;-50
2022/06/17 10:08:10;;;;;;;4.32;1.95;;;37.70;47.90;;;;;;5033628;28;20097;-53
2022/06/17 10:10:53;;;;;;;1.40;1.23;;;38.00;47.50;;;;;;5015822;28;20156;-50
2022/06/17 10:13:49;;;;;;;3.35;1.58;;;38.50;47.70;;;;;;5015874;28;20117;-51
2022/06/17 10:19:27;;;;;;;6.00;1.80;;;39.00;46.00;;;;;;5037205;28;20382;-49
2022/06/17 10:22:23;;;;;;;6.03;1.67;;;39.60;45.40;;;;;;5019250;28;20081;-48
2022/06/17 10:25:04;;;;;;;1.70;1.33;;;37.60;47.00;;;;;;5015515;28;20044;-50
2022/06/17 10:27:29;;;;;;;;;;;35.60;47.50;;;;;;5019452;28;20021;-49
2022/06/17 10:30:03;;;;;;;1.63;1.15;;;35.30;49.60;;;;;;5018698;28;19999;-49
2022/06/17 10:32:34;;;;;;;3.85;1.50;;;36.10;48.30;;;;;;5036426;28;20025;-50
2022/06/17 10:35:01;;;;;;;;;;;34.90;48.20;;;;;;5019115;28;20505;-52
2022/06/17 10:37:30;;;;;;;3.35;1.20;;;33.50;50.50;;;;;;5018708;28;19905;-51
2022/06/17 10:39:56;;;;;;;3.03;0.98;;;32.70;50.90;;;;;;5019104;28;20021;-51
2022/06/17 10:42:24;;;;;;;2.47;1.40;;;31.80;52.70;;;;;;5036293;28;20020;-52
2022/06/17 10:44:53;;;;;;;3.92;1.77;;;32.10;52.30;;;;;;5018666;28;20383;-53
2022/06/17 10:47:50;;;;;;;6.25;1.40;;;31.50;51.20;;;;;;5036155;28;20022;-50
2022/06/17 10:50:28;;;;;;;5.82;1.52;;;31.00;53.10;;;;;;5018349;28;20029;-50
2022/06/17 10:53:13;;;;;;;2.33;1.23;;;30.40;53.00;;;;;;5036174;28;20044;-53
2022/06/17 10:55:43;;;;;;;2.35;1.42;;;30.00;53.90;;;;;;5018899;28;20513;-55
2022/06/17 10:58:20;;;;;;;3.03;1.50;;;29.90;53.70;;;;;;5018213;28;20087;-52
2022/06/17 11:00:59;;;;;;;3.72;0.90;;;29.40;54.00;;;;;;5035853;28;20025;-50
2022/06/17 11:03:26;;;;;;;4.30;1.05;;;29.10;52.80;;;;;;5018100;28;20021;-53
2022/06/17 11:05:59;;;;;;;3.15;1.17;;;29.10;53.30;;;;;;5018714;28;20092;-53
2022/06/17 11:08:40;;;;;;;4.43;1.50;;;29.00;54.90;;;;;;5018051;28;20456;-50
2022/06/17 11:13:55;;;;;;;2.58;1.10;;;28.50;54.20;;;;;;5035980;28;20041;-55
2022/06/17 11:16:23;;;;;;;3.10;0.95;;;28.20;54.50;;;;;;5017950;28;20033;-51
2022/06/17 11:19:05;;;;;;;4.45;1.27;;;28.50;56.40;;;;;;5035478;28;20021;-55
2022/06/17 11:21:37;;;;;;;2.45;1.05;;;28.80;56.30;;;;;;5035934;28;20487;-53
2022/06/17 11:24:04;;;;;;;1.25;1.00;;;29.00;56.10;;;;;;5018561;28;20033;-55
2022/06/17 11:26:32;;;;;;;1.98;1.10;;;29.20;55.90;;;;;;5035848;28;20032;-50
2022/06/17 11:29:04;;;;;;;2.72;0.80;;;28.70;55.10;;;;;;5034611;28;20056;-51
2022/06/17 11:31:38;;;;;;;1.50;0.90;;;28.30;54.20;;;;;;5018454;28;20030;-49
2022/06/17 11:34:14;;;;;;;1.35;1.20;;;28.30;56.70;;;;;;5035643;28;20030;-51
2022/06/17 11:36:53;;;;;;;2.75;0.95;;;28.60;55.30;;;;;;5017934;28;20132;-49
2022/06/17 11:39:33;;;;;;;1.25;0.80;;;28.80;55.60;;;;;;5034990;28;20027;-50
2022/06/17 11:42:24;;;;;;;1.80;1.10;;;28.90;54.90;;;;;;5017770;28;20022;-51
2022/06/17 11:44:54;;;;;;;1.35;0.70;;;29.10;53.80;;;;;;5010250;28;20049;-52
2022/06/17 11:47:23;;;;;;;0.80;0.80;;;29.20;55.90;;;;;;5017558;28;20368;-48
2022/06/17 11:49:49;;;;;;;1.27;0.88;;;28.80;54.10;;;;;;5017397;28;20112;-53
2022/06/17 11:52:32;;;;;;;1.27;0.75;;;28.40;53.80;;;;;;5034955;28;20498;-55
2022/06/17 11:54:59;;;;;;;3.03;1.00;;;28.00;55.40;;;;;;5035218;28;20108;-51
2022/06/17 11:57:27;;;;;;;2.63;1.02;;;28.00;55.00;;;;;;5017410;28;20108;-54
2022/06/17 11:59:56;;;;;;;2.40;1.13;;;28.30;55.20;;;;;;5034660;28;20051;-53
2022/06/17 12:02:22;;;;;;;3.08;0.80;;;28.20;55.10;;;;;;5034680;28;20022;-50
2022/06/17 12:05:27;;;;;;;1.35;0.90;;;28.40;57.60;;;;;;5034662;28;20056;-48
2022/06/17 12:08:08;;;;;;;2.40;1.23;;;28.50;55.90;;;;;;5017772;28;20021;-51
2022/06/17 12:10:46;;;;;;;;;;;28.40;55.50;;;;;;5035276;28;20142;-54
2022/06/17 12:13:22;;;;;;;3.75;0.93;;;28.60;57.20;;;;;;5017725;28;20000;-54
2022/06/17 12:16:14;;;;;;;1.67;0.90;;;28.90;56.90;;;;;;5034508;28;20025;-50
2022/06/17 12:18:53;;;;;;;1.73;1.10;;;29.10;54.90;;;;;;5034467;28;20091;-50
2022/06/17 12:21:49;;;;;;;1.73;0.80;;;29.10;55.40;;;;;;5034371;28;20037;-56
2022/06/17 12:24:29;;;;;;;3.55;1.23;;;29.20;55.30;;;;;;5017367;28;20029;-58
2022/06/17 12:27:22;;;;;;;1.40;0.88;;;29.30;55.30;;;;;;5016576;28;20026;-56
2022/06/17 12:30:01;;;;;;;2.30;0.88;;;28.90;54.10;;;;;;5034180;28;20029;-51
2022/06/17 12:32:45;;;;;;;1.73;1.10;;;28.30;54.80;;;;;;5016554;28;20403;-50
2022/06/17 12:35:40;;;;;;;2.40;0.98;;;28.30;56.30;;;;;;5033996;28;20033;-55
2022/06/17 12:38:10;;;;;;;3.28;0.82;;;28.20;55.30;;;;;;5034227;28;20471;-50
2022/06/17 12:40:44;;;;;;;9.07;1.27;;;28.00;57.10;;;;;;5015984;28;20091;-56
2022/06/17 12:43:20;;;;;;;2.55;0.90;;;27.90;55.30;;;;;;5034181;28;20037;-55
2022/06/17 12:46:27;;;;;;;1.52;0.82;;;27.60;55.10;;;;;;5016529;28;20021;-51
2022/06/17 12:55:47;;;;;;;2.20;1.00;;;27.40;58.30;;;;;;5034006;28;20036;-52
2022/06/17 12:58:43;;;;;;;1.23;1.00;;;27.30;56.70;;;;;;5033724;28;20030;-50
2022/06/17 13:01:16;;;;;;;3.72;1.13;;;27.40;57.80;;;;;;5017103;28;20123;-56
2022/06/17 13:04:13;;;;;;;1.83;1.00;;;27.60;57.70;;;;;;5016322;28;20475;-54
2022/06/17 13:06:58;;;;;;;4.38;1.20;;;27.70;57.70;;;;;;4988621;28;20025;-56
2022/06/17 13:09:38;;;;;;;0.93;0.90;;;27.90;57.10;;;;;;5016423;28;20044;-56
2022/06/17 13:12:06;;;;;;;2.30;1.30;;;28.00;56.80;;;;;;5015827;28;20044;-56
2022/06/17 13:14:47;;;;;;;2.70;0.93;;;28.10;56.60;;;;;;5015773;28;20112;-55
2022/06/17 13:17:13;;;;;;;2.80;1.20;;;28.10;56.90;;;;;;5016521;28;20025;-54
2022/06/17 13:19:46;;;;;;;7.65;1.02;;;28.20;57.20;;;;;;5033304;28;20021;-56
2022/06/17 13:22:21;;;;;;;1.48;1.02;;;28.30;56.90;;;;;;5016446;28;20625;-56
2022/06/17 13:24:59;;;;;;;4.18;1.00;;;28.20;56.00;;;;;;5015547;28;20029;-51
2022/06/17 13:27:34;;;;;;;3.65;0.90;;;27.90;57.20;;;;;;5015837;28;20022;-55
2022/06/17 13:30:08;;;;;;;7.55;1.15;;;28.10;56.60;;;;;;5033442;28;20025;-50
2022/06/17 13:32:48;;;;;;;0.93;0.93;;;28.10;56.40;;;;;;5015674;28;20028;-53
2022/06/17 13:35:16;;;;;;;2.47;1.10;;;28.10;56.60;;;;;;5016793;28;20126;-54
2022/06/17 13:37:50;;;;;;;2.13;0.80;;;28.00;57.40;;;;;;5015515;28;20025;-52
2022/06/17 13:40:28;;;;;;;2.20;1.33;;;28.00;57.50;;;;;;5015484;28;20030;-51